Time;durP1;ratioP1;P1;durP2;ratioP2;P2;SDS_P1;SDS_P2;PMS_P1;PMS_P2;Temp;Humidity;BMP_temperature;BMP_pressure;BME280_temperature;BME280_humidity;BME280_pressure;Samples;Min_cycle;Max_cycle;Signal;HPM_P1;HPM_P2
2021/03/18 00:00:10;;;;;;;70.28;12.20;;;1.10;1.00;;;;;;5135475;27;20310;-66
2021/03/18 00:02:37;;;;;;;67.78;13.48;;;1.10;1.00;;;;;;5134857;27;20733;-66
2021/03/18 00:05:05;;;;;;;68.10;12.50;;;1.20;1.00;;;;;;5135148;27;20644;-66
2021/03/18 00:07:31;;;;;;;67.45;13.50;;;1.20;1.00;;;;;;5135187;27;20258;-66
2021/03/18 00:09:57;;;;;;;66.72;13.13;;;1.20;1.00;;;;;;5135066;27;20290;-66
2021/03/18 00:12:24;;;;;;;66.55;12.73;;;1.20;1.00;;;;;;5134743;27;20373;-66
2021/03/18 00:14:51;;;;;;;71.47;13.18;;;1.20;1.00;;;;;;5134843;27;20289;-66
2021/03/18 00:17:17;;;;;;;68.07;12.57;;;1.20;1.00;;;;;;5135172;27;20249;-66
2021/03/18 00:19:44;;;;;;;67.68;13.65;;;1.20;1.00;;;;;;5135067;27;20207;-66
2021/03/18 00:22:10;;;;;;;66.55;13.85;;;1.20;1.00;;;;;;5134592;27;20291;-66
2021/03/18 00:24:36;;;;;;;73.03;14.48;;;1.20;1.00;;;;;;5134724;27;20285;-66
2021/03/18 00:27:03;;;;;;;66.53;13.90;;;1.20;1.00;;;;;;5134478;27;20265;-66
2021/03/18 00:29:29;;;;;;;68.72;14.57;;;1.20;1.00;;;;;;5134370;27;20199;-66
2021/03/18 00:31:57;;;;;;;70.18;15.90;;;1.20;1.00;;;;;;5134923;27;20343;-66
2021/03/18 00:34:23;;;;;;;69.22;16.00;;;1.20;1.00;;;;;;5134536;27;20203;-66
2021/03/18 00:36:50;;;;;;;68.20;14.55;;;1.20;1.00;;;;;;5134689;27;20318;-66
2021/03/18 00:39:16;;;;;;;70.63;15.55;;;1.30;1.00;;;;;;5134429;27;20203;-66
2021/03/18 00:41:42;;;;;;;67.70;14.88;;;1.30;1.00;;;;;;5133137;27;20203;-66
2021/03/18 00:44:08;;;;;;;70.60;16.15;;;1.30;1.00;;;;;;5134020;27;20203;-66
2021/03/18 00:46:35;;;;;;;72.93;16.92;;;1.40;1.00;;;;;;5134283;27;20253;-67
2021/03/18 00:49:03;;;;;;;72.90;16.38;;;1.40;1.00;;;;;;5134089;27;20700;-66
2021/03/18 00:51:29;;;;;;;67.93;15.27;;;1.40;1.00;;;;;;5134405;27;20211;-66
2021/03/18 00:53:56;;;;;;;70.28;16.50;;;1.40;1.00;;;;;;5133892;27;20203;-66
2021/03/18 00:56:23;;;;;;;72.85;17.63;;;1.50;1.00;;;;;;5133915;27;20738;-66
2021/03/18 00:58:50;;;;;;;76.20;17.33;;;1.50;1.00;;;;;;5133684;27;20198;-66
2021/03/18 01:01:21;;;;;;;71.20;17.25;;;1.40;1.00;;;;;;5134054;27;20207;-66
2021/03/18 01:03:47;;;;;;;74.78;19.98;;;1.40;1.00;;;;;;5133683;27;20241;-66
2021/03/18 01:06:17;;;;;;;76.10;17.25;;;1.40;1.00;;;;;;5133515;27;20203;-66
2021/03/18 01:08:44;;;;;;;73.50;18.05;;;1.40;1.00;;;;;;5133724;27;20227;-66
2021/03/18 01:11:13;;;;;;;74.00;18.52;;;1.40;1.00;;;;;;5133647;27;20202;-66
2021/03/18 01:13:42;;;;;;;70.80;17.02;;;1.40;1.00;;;;;;5133792;27;20207;-66
2021/03/18 01:16:11;;;;;;;69.30;16.70;;;1.40;1.00;;;;;;5133829;27;20205;-66
2021/03/18 01:18:41;;;;;;;73.30;17.42;;;1.40;1.00;;;;;;5133573;27;20229;-66
2021/03/18 01:21:08;;;;;;;74.28;18.90;;;1.40;1.00;;;;;;5133679;27;20293;-66
2021/03/18 01:23:35;;;;;;;74.43;19.63;;;1.30;1.00;;;;;;5133355;27;20655;-66
2021/03/18 01:26:02;;;;;;;73.60;18.50;;;1.30;1.00;;;;;;5133242;27;20207;-66
2021/03/18 01:28:29;;;;;;;76.55;19.45;;;1.30;1.00;;;;;;5133173;27;20313;-66
2021/03/18 01:30:56;;;;;;;73.75;20.38;;;1.30;1.00;;;;;;5133536;27;20202;-66
2021/03/18 01:33:22;;;;;;;71.57;18.10;;;1.30;1.00;;;;;;5133370;27;20210;-66
2021/03/18 01:35:49;;;;;;;73.78;17.73;;;1.30;1.00;;;;;;5133119;27;20620;-66
2021/03/18 01:38:16;;;;;;;72.22;18.33;;;1.30;1.00;;;;;;5133032;27;20824;-66
2021/03/18 01:40:44;;;;;;;74.80;18.95;;;1.30;1.00;;;;;;5133118;27;20667;-66
2021/03/18 01:43:10;;;;;;;72.43;16.70;;;1.30;1.00;;;;;;5132977;27;20727;-66
2021/03/18 01:45:37;;;;;;;72.93;18.67;;;1.30;1.00;;;;;;5133178;27;20289;-66
2021/03/18 01:48:05;;;;;;;75.20;19.20;;;1.30;1.00;;;;;;5133095;27;20242;-66
2021/03/18 01:50:34;;;;;;;75.28;19.35;;;1.30;1.00;;;;;;5133090;27;20207;-65
2021/03/18 01:53:01;;;;;;;71.72;19.00;;;1.30;1.00;;;;;;5132230;27;20230;-66
2021/03/18 01:55:30;;;;;;;70.40;17.95;;;1.30;1.00;;;;;;5132843;27;20203;-66
2021/03/18 01:57:58;;;;;;;74.63;17.40;;;1.30;1.00;;;;;;5132780;27;20309;-66
2021/03/18 02:00:27;;;;;;;70.43;16.63;;;1.30;1.00;;;;;;5133112;27;20206;-66
2021/03/18 02:02:54;;;;;;;67.93;14.23;;;1.30;1.00;;;;;;5132810;27;20215;-66
2021/03/18 02:05:21;;;;;;;70.68;14.80;;;1.30;1.00;;;;;;5132756;27;20645;-66
2021/03/18 02:07:48;;;;;;;75.43;17.65;;;1.30;1.00;;;;;;5132488;27;20313;-66
2021/03/18 02:10:16;;;;;;;67.55;14.55;;;1.30;1.00;;;;;;5132769;27;20211;-66
2021/03/18 02:12:42;;;;;;;67.65;14.90;;;1.30;1.00;;;;;;5132493;27;20234;-66
2021/03/18 02:15:11;;;;;;;69.50;15.35;;;1.30;1.00;;;;;;5132700;27;20286;-66
2021/03/18 02:17:49;;;;;;;67.80;14.05;;;1.30;1.00;;;;;;5132716;27;20326;-66
2021/03/18 02:20:48;;;;;;;68.63;14.90;;;1.30;1.00;;;;;;5132641;27;20202;-66
2021/03/18 02:23:54;;;;;;;69.72;16.33;;;1.20;1.00;;;;;;5107381;27;20290;-66
2021/03/18 02:26:40;;;;;;;71.97;16.98;;;1.20;1.00;;;;;;5132208;27;20605;-66
2021/03/18 02:29:23;;;;;;;70.25;16.58;;;1.20;1.00;;;;;;5132422;27;20713;-66
2021/03/18 02:32:10;;;;;;;68.55;14.75;;;1.20;1.00;;;;;;5132427;27;20210;-66
2021/03/18 02:34:56;;;;;;;69.47;17.10;;;1.20;1.00;;;;;;5132208;27;20313;-66
2021/03/18 02:37:25;;;;;;;72.85;16.33;;;1.20;1.00;;;;;;5132279;27;20313;-66
2021/03/18 02:40:00;;;;;;;71.47;16.13;;;1.20;1.00;;;;;;5132491;27;20297;-66
2021/03/18 02:42:28;;;;;;;71.30;15.77;;;1.20;1.00;;;;;;5132362;27;20338;-66
2021/03/18 02:44:59;;;;;;;71.72;17.02;;;1.20;1.00;;;;;;5132236;27;20202;-66
2021/03/18 02:47:28;;;;;;;72.30;16.70;;;1.20;1.00;;;;;;5132305;27;20604;-66
2021/03/18 02:49:57;;;;;;;71.18;16.48;;;1.30;1.00;;;;;;5132493;27;20207;-66
2021/03/18 02:52:29;;;;;;;69.35;16.45;;;1.30;1.00;;;;;;5132232;27;20303;-66
2021/03/18 02:54:58;;;;;;;74.93;17.90;;;1.30;1.00;;;;;;5132180;27;20202;-66
2021/03/18 02:57:27;;;;;;;71.60;15.90;;;1.30;1.00;;;;;;5131896;27;20222;-66
2021/03/18 02:59:55;;;;;;;70.18;16.05;;;1.30;1.00;;;;;;5132060;27;20298;-66
2021/03/18 03:02:25;;;;;;;73.07;17.85;;;1.30;1.00;;;;;;5131925;27;20294;-66
2021/03/18 03:04:53;;;;;;;70.65;17.25;;;1.40;1.00;;;;;;5133823;27;20253;-66
2021/03/18 03:07:22;;;;;;;71.50;17.13;;;1.40;1.00;;;;;;5136081;27;20585;-66
2021/03/18 03:09:50;;;;;;;70.93;16.77;;;1.40;1.00;;;;;;5136040;27;20209;-66
2021/03/18 03:12:19;;;;;;;70.93;16.50;;;1.40;1.00;;;;;;5135813;27;20206;-66
2021/03/18 03:14:48;;;;;;;69.88;14.40;;;1.40;1.00;;;;;;5136094;27;20235;-66
2021/03/18 03:17:19;;;;;;;73.18;15.30;;;1.50;1.00;;;;;;5135834;27;20222;-66
2021/03/18 03:19:47;;;;;;;72.03;15.10;;;1.50;1.00;;;;;;5135993;27;20629;-66
2021/03/18 03:22:14;;;;;;;70.32;14.40;;;1.50;1.00;;;;;;5135850;27;20211;-66
2021/03/18 03:24:43;;;;;;;70.95;13.18;;;1.50;1.00;;;;;;5135550;27;20203;-66
2021/03/18 03:27:12;;;;;;;67.13;12.25;;;1.50;1.00;;;;;;5135889;27;20638;-66
2021/03/18 03:29:41;;;;;;;67.78;12.68;;;1.50;1.00;;;;;;5135674;27;20202;-66
2021/03/18 03:32:09;;;;;;;67.55;11.50;;;1.50;1.00;;;;;;5135805;27;20459;-66
2021/03/18 03:34:36;;;;;;;64.20;12.23;;;1.50;1.00;;;;;;5135641;27;20356;-66
2021/03/18 03:37:04;;;;;;;75.20;13.95;;;1.50;1.00;;;;;;5135438;27;20219;-66
2021/03/18 03:39:31;;;;;;;72.38;15.30;;;1.50;1.00;;;;;;5135758;27;20630;-66
2021/03/18 03:41:57;;;;;;;81.72;15.23;;;1.50;1.00;;;;;;5135494;27;20209;-66
2021/03/18 03:44:25;;;;;;;70.28;12.40;;;1.40;1.00;;;;;;5135614;27;20646;-66
2021/03/18 03:46:51;;;;;;;68.97;12.88;;;1.50;1.00;;;;;;5135513;27;20275;-66
2021/03/18 03:49:18;;;;;;;69.53;14.05;;;1.40;1.00;;;;;;5135316;27;20293;-66
2021/03/18 03:51:56;;;;;;;67.95;13.15;;;1.40;1.00;;;;;;5135279;27;20202;-66
2021/03/18 03:54:24;;;;;;;67.85;13.80;;;1.50;1.00;;;;;;5135407;27;20226;-66
2021/03/18 03:56:58;;;;;;;67.90;13.77;;;1.50;1.00;;;;;;5135225;27;20271;-66
2021/03/18 03:59:28;;;;;;;74.05;15.10;;;1.50;1.00;;;;;;5135064;27;20258;-66
2021/03/18 04:01:56;;;;;;;73.22;13.57;;;1.40;1.00;;;;;;5135053;27;20199;-66
2021/03/18 04:04:24;;;;;;;66.05;12.48;;;1.40;1.00;;;;;;5134980;27;20326;-66
2021/03/18 04:06:55;;;;;;;66.00;12.60;;;1.40;1.00;;;;;;5135049;27;20605;-66
2021/03/18 04:09:23;;;;;;;66.82;13.50;;;1.40;1.00;;;;;;5134996;27;20272;-66
2021/03/18 04:11:50;;;;;;;69.85;12.40;;;1.40;1.00;;;;;;5134712;27;20199;-66
2021/03/18 04:14:19;;;;;;;65.78;11.60;;;1.40;1.00;;;;;;5134745;27;20310;-66
2021/03/18 04:16:47;;;;;;;67.05;12.65;;;1.40;1.00;;;;;;5134140;27;20225;-66
2021/03/18 04:19:17;;;;;;;66.13;10.65;;;1.40;1.00;;;;;;5134938;27;20205;-65
2021/03/18 04:21:48;;;;;;;64.13;11.05;;;1.40;1.00;;;;;;5134994;27;20207;-66
2021/03/18 04:24:16;;;;;;;68.93;11.57;;;1.40;1.00;;;;;;5134700;27;20203;-66
2021/03/18 04:26:43;;;;;;;63.50;10.43;;;1.40;1.00;;;;;;5134432;27;20243;-67
2021/03/18 04:29:11;;;;;;;64.05;10.63;;;1.40;1.00;;;;;;5134257;27;20205;-67
2021/03/18 04:31:39;;;;;;;66.22;10.73;;;1.40;1.00;;;;;;5134882;27;20562;-66
2021/03/18 04:34:08;;;;;;;66.82;11.77;;;1.40;1.00;;;;;;5134446;27;20298;-67
2021/03/18 04:36:36;;;;;;;66.18;11.45;;;1.40;1.00;;;;;;5134288;27;20298;-67
2021/03/18 04:39:05;;;;;;;67.63;11.07;;;1.40;1.00;;;;;;5134157;27;20287;-67
2021/03/18 04:41:32;;;;;;;66.65;11.05;;;1.40;1.00;;;;;;5134241;27;20294;-66
2021/03/18 04:44:01;;;;;;;65.32;11.00;;;1.40;1.00;;;;;;5133979;27;20249;-67
2021/03/18 04:46:30;;;;;;;66.30;11.23;;;1.40;1.00;;;;;;5134272;27;20618;-67
2021/03/18 04:48:59;;;;;;;64.97;11.90;;;1.30;1.00;;;;;;5134410;27;20203;-66
2021/03/18 04:51:26;;;;;;;65.57;11.82;;;1.30;1.00;;;;;;5134193;27;20233;-66
2021/03/18 04:53:53;;;;;;;65.60;10.73;;;1.30;1.00;;;;;;5133851;27;20293;-66
2021/03/18 04:56:21;;;;;;;68.35;9.98;;;1.30;1.00;;;;;;5133827;27;20239;-67
2021/03/18 04:58:48;;;;;;;68.63;11.55;;;1.40;1.00;;;;;;5134102;27;20202;-66
2021/03/18 05:01:17;;;;;;;66.25;10.85;;;1.30;1.00;;;;;;5134165;27;20611;-66
2021/03/18 05:03:45;;;;;;;67.70;11.63;;;1.30;1.00;;;;;;5133782;27;20249;-66
2021/03/18 05:06:12;;;;;;;65.40;11.93;;;1.30;1.00;;;;;;5133890;27;20198;-67
2021/03/18 05:08:41;;;;;;;65.90;9.75;;;1.30;1.00;;;;;;5133425;27;20705;-67
2021/03/18 05:11:09;;;;;;;63.00;10.13;;;1.30;1.00;;;;;;5133792;27;20302;-67
2021/03/18 05:13:36;;;;;;;61.65;9.73;;;1.30;1.00;;;;;;5133766;27;20294;-67
2021/03/18 05:16:03;;;;;;;64.30;9.68;;;1.30;1.00;;;;;;5133608;27;20635;-67
2021/03/18 05:18:31;;;;;;;63.13;9.40;;;1.20;1.00;;;;;;5133653;27;20245;-66
2021/03/18 05:21:00;;;;;;;67.60;9.75;;;1.20;1.00;;;;;;5133699;27;20209;-67
2021/03/18 05:23:27;;;;;;;62.45;8.57;;;1.20;1.00;;;;;;5133222;27;20324;-67
2021/03/18 05:25:55;;;;;;;62.65;9.75;;;1.20;1.00;;;;;;5133862;27;20289;-66
2021/03/18 05:28:22;;;;;;;66.68;9.98;;;1.20;1.00;;;;;;5132660;27;20346;-67
2021/03/18 05:30:50;;;;;;;65.03;9.63;;;1.20;1.00;;;;;;5133809;27;20643;-67
2021/03/18 05:33:17;;;;;;;63.97;9.20;;;1.20;1.00;;;;;;5133383;27;20291;-67
2021/03/18 05:35:45;;;;;;;61.10;8.43;;;1.20;1.00;;;;;;5133113;27;20698;-67
2021/03/18 05:38:13;;;;;;;64.32;8.55;;;1.10;1.00;;;;;;5133084;27;20707;-66
2021/03/18 05:40:43;;;;;;;66.28;10.02;;;1.20;1.00;;;;;;5133475;27;20331;-67
2021/03/18 05:43:11;;;;;;;63.60;8.30;;;1.20;1.00;;;;;;5133302;27;20214;-67
2021/03/18 05:45:37;;;;;;;65.72;9.30;;;1.20;1.00;;;;;;5133291;27;20283;-67
2021/03/18 05:48:05;;;;;;;63.10;8.85;;;1.20;1.00;;;;;;5133031;27;20321;-67
2021/03/18 05:50:34;;;;;;;62.50;9.40;;;1.20;1.00;;;;;;5132993;27;20295;-67
2021/03/18 05:53:01;;;;;;;80.35;18.95;;;1.20;1.00;;;;;;5132968;27;20290;-67
2021/03/18 05:55:28;;;;;;;66.72;11.90;;;1.20;1.00;;;;;;5133080;27;20199;-67
2021/03/18 05:57:55;;;;;;;66.22;10.68;;;1.20;1.00;;;;;;5133008;27;20222;-66
2021/03/18 06:00:24;;;;;;;64.38;10.05;;;1.20;1.00;;;;;;5132955;27;20207;-67
2021/03/18 06:02:51;;;;;;;64.57;9.15;;;1.30;1.00;;;;;;5132856;27;20199;-67
2021/03/18 06:05:18;;;;;;;63.03;9.80;;;1.30;1.00;;;;;;5132878;27;20207;-67
2021/03/18 06:07:47;;;;;;;64.22;9.90;;;1.30;1.00;;;;;;5132579;27;20318;-67
2021/03/18 06:10:15;;;;;;;64.57;9.60;;;1.40;1.00;;;;;;5132812;27;20207;-67
2021/03/18 06:12:43;;;;;;;62.90;9.50;;;1.40;1.00;;;;;;5132612;27;20206;-67
2021/03/18 06:15:11;;;;;;;62.40;9.20;;;1.50;1.00;;;;;;5132501;27;20199;-66
2021/03/18 06:17:39;;;;;;;66.35;10.15;;;1.50;1.00;;;;;;5132420;27;20214;-67
2021/03/18 06:20:07;;;;;;;68.93;10.93;;;1.60;1.00;;;;;;5132842;27;20272;-67
2021/03/18 06:22:36;;;;;;;63.17;11.63;;;1.70;1.00;;;;;;5132705;27;20234;-67
2021/03/18 06:25:04;;;;;;;66.97;12.18;;;1.70;1.00;;;;;;5132761;27;20202;-67
2021/03/18 06:27:30;;;;;;;72.95;12.30;;;1.80;1.00;;;;;;5132445;27;20314;-67
2021/03/18 06:29:57;;;;;;;65.38;12.00;;;1.80;1.00;;;;;;5132333;27;20330;-67
2021/03/18 06:32:25;;;;;;;65.70;11.10;;;1.90;1.00;;;;;;5132641;27;20633;-67
2021/03/18 06:34:53;;;;;;;62.47;10.00;;;2.00;1.00;;;;;;5132538;27;20218;-66
2021/03/18 06:37:34;;;;;;;63.45;10.18;;;2.10;1.00;;;;;;5132562;27;20589;-67
2021/03/18 06:40:10;;;;;;;66.53;10.57;;;2.10;1.00;;;;;;5135813;27;20209;-67
2021/03/18 06:42:36;;;;;;;62.95;9.35;;;2.20;1.00;;;;;;5136474;27;20229;-67
2021/03/18 06:45:12;;;;;;;63.67;9.40;;;2.30;1.00;;;;;;5136840;27;20214;-67
2021/03/18 06:47:43;;;;;;;61.42;9.00;;;2.30;1.00;;;;;;5136492;27;20314;-67
2021/03/18 06:50:12;;;;;;;62.00;8.27;;;2.40;1.00;;;;;;5136478;27;20285;-67
2021/03/18 06:52:40;;;;;;;63.83;8.70;;;2.30;1.00;;;;;;5136282;27;20783;-67
2021/03/18 06:55:11;;;;;;;60.63;7.60;;;2.30;1.00;;;;;;5136230;27;20210;-66
2021/03/18 06:57:38;;;;;;;62.00;8.75;;;2.40;1.00;;;;;;5136237;27;20710;-67
2021/03/18 07:00:08;;;;;;;60.53;8.40;;;2.40;1.00;;;;;;5136279;27;20259;-67
2021/03/18 07:02:40;;;;;;;62.75;9.27;;;2.60;1.00;;;;;;5136216;27;20203;-67
2021/03/18 07:05:18;;;;;;;64.07;8.90;;;2.70;1.00;;;;;;5136066;27;20228;-66
2021/03/18 07:07:47;;;;;;;64.35;8.70;;;2.80;1.00;;;;;;5136325;27;20389;-66
2021/03/18 07:10:14;;;;;;;61.47;7.82;;;2.90;1.00;;;;;;5136236;27;20207;-66
2021/03/18 07:12:41;;;;;;;62.45;8.00;;;3.00;1.00;;;;;;5136140;27;20230;-66
2021/03/18 07:15:17;;;;;;;61.60;8.55;;;3.00;1.00;;;;;;5136020;27;20202;-66
2021/03/18 07:17:44;;;;;;;62.65;7.70;;;3.10;1.00;;;;;;5135933;27;20690;-66
2021/03/18 07:20:15;;;;;;;63.88;7.97;;;3.20;1.00;;;;;;5135702;27;20298;-66
2021/03/18 07:22:45;;;;;;;63.30;7.82;;;3.30;1.00;;;;;;5135796;27;20694;-65
2021/03/18 07:25:13;;;;;;;60.72;7.63;;;3.40;1.00;;;;;;5135991;27;20203;-65
2021/03/18 07:27:41;;;;;;;64.38;8.25;;;3.50;1.00;;;;;;5135714;27;20309;-66
2021/03/18 07:30:09;;;;;;;69.72;9.82;;;3.60;1.00;;;;;;5135631;27;20238;-66
2021/03/18 07:32:36;;;;;;;63.47;8.00;;;3.60;1.00;;;;;;5135355;27;20289;-66
2021/03/18 07:35:02;;;;;;;65.18;7.60;;;3.50;1.00;;;;;;5135311;27;20211;-65
2021/03/18 07:37:29;;;;;;;63.65;7.80;;;3.50;1.00;;;;;;5135515;27;20305;-65
2021/03/18 07:39:56;;;;;;;61.38;8.43;;;3.40;1.00;;;;;;5135653;27;20664;-66
2021/03/18 07:42:22;;;;;;;61.33;7.53;;;3.40;1.00;;;;;;5135544;27;20335;-66
2021/03/18 07:44:50;;;;;;;60.17;7.20;;;3.40;1.00;;;;;;5135562;27;20203;-66
2021/03/18 07:47:17;;;;;;;69.13;8.82;;;3.50;1.00;;;;;;5135183;27;20235;-65
2021/03/18 07:49:45;;;;;;;61.70;7.57;;;3.50;1.00;;;;;;5135331;27;20310;-66
2021/03/18 07:52:15;;;;;;;65.40;7.65;;;3.60;1.00;;;;;;5134774;27;20289;-65
2021/03/18 07:54:45;;;;;;;60.80;8.02;;;3.70;1.00;;;;;;5135431;27;20203;-65
2021/03/18 07:57:15;;;;;;;60.00;7.13;;;3.70;1.00;;;;;;5135446;27;20211;-66
2021/03/18 07:59:42;;;;;;;62.80;7.35;;;3.70;1.00;;;;;;5135042;27;20207;-65
2021/03/18 08:02:17;;;;;;;60.97;7.20;;;3.70;1.00;;;;;;5135314;27;20210;-66
2021/03/18 08:04:44;;;;;;;62.33;7.53;;;3.60;1.00;;;;;;5135242;27;20210;-66
2021/03/18 08:07:11;;;;;;;60.95;7.32;;;3.50;1.00;;;;;;5134994;27;20230;-68
2021/03/18 08:09:58;;;;;;;62.60;7.47;;;3.40;1.00;;;;;;5135141;27;20203;-66
2021/03/18 08:12:57;;;;;;;63.67;7.18;;;3.40;1.00;;;;;;5135190;27;20651;-66
2021/03/18 08:15:30;;;;;;;65.30;7.85;;;3.40;1.00;;;;;;5071410;28;20209;-65
2021/03/18 08:18:44;;;;;;;61.70;7.90;;;3.40;1.00;;;;;;5123105;27;20243;-66
2021/03/18 08:21:12;;;;;;;60.53;7.65;;;3.50;1.00;;;;;;5135193;27;20225;-66
2021/03/18 08:23:43;;;;;;;62.28;7.78;;;3.60;1.00;;;;;;5134738;27;20294;-67
2021/03/18 08:26:12;;;;;;;66.43;8.15;;;3.60;1.00;;;;;;5135082;27;20234;-67
2021/03/18 08:28:45;;;;;;;65.70;8.07;;;3.70;1.00;;;;;;5134604;27;20594;-67
2021/03/18 08:31:13;;;;;;;65.50;8.52;;;3.70;1.00;;;;;;5135192;27;20301;-67
2021/03/18 08:33:45;;;;;;;60.72;7.63;;;3.70;1.00;;;;;;5134505;27;20681;-67
2021/03/18 08:36:27;;;;;;;62.28;8.90;;;3.80;1.00;;;;;;5134607;27;20304;-67
2021/03/18 08:38:56;;;;;;;63.70;7.78;;;4.00;1.00;;;;;;5134285;27;20707;-67
2021/03/18 08:41:29;;;;;;;65.97;8.02;;;4.00;1.00;;;;;;5134621;27;20205;-67
2021/03/18 08:44:16;;;;;;;62.40;8.60;;;4.10;1.00;;;;;;5134469;27;20238;-67
2021/03/18 08:46:47;;;;;;;63.10;7.95;;;4.20;1.00;;;;;;5134475;27;20227;-67
2021/03/18 08:49:27;;;;;;;67.32;8.82;;;4.30;1.00;;;;;;5134419;27;20203;-67
2021/03/18 08:51:55;;;;;;;69.43;8.77;;;4.30;1.00;;;;;;5134344;27;20259;-67
2021/03/18 08:54:52;;;;;;;63.40;7.85;;;4.30;1.00;;;;;;5134727;27;20230;-67
2021/03/18 08:57:33;;;;;;;63.63;8.73;;;4.40;1.00;;;;;;5134295;27;20496;-67
2021/03/18 09:00:14;;;;;;;65.38;9.70;;;4.60;1.00;;;;;;5134056;27;20207;-67
2021/03/18 09:02:41;;;;;;;63.55;9.05;;;5.00;1.00;;;;;;5133152;27;20203;-67
2021/03/18 09:05:12;;;;;;;62.03;8.25;;;5.40;1.00;;;;;;5134224;27;20214;-67
2021/03/18 09:07:39;;;;;;;63.15;8.77;;;5.80;1.00;;;;;;5133946;27;20226;-67
2021/03/18 09:10:16;;;;;;;64.93;9.07;;;6.10;1.00;;;;;;5134229;27;20748;-67
2021/03/18 09:12:51;;;;;;;61.85;7.97;;;6.50;1.00;;;;;;5134006;27;20272;-68
2021/03/18 09:15:24;;;;;;;62.90;8.15;;;6.90;1.00;;;;;;5134098;27;20267;-67
2021/03/18 09:17:54;;;;;;;63.30;7.65;;;7.20;1.00;;;;;;5134007;27;20257;-67
2021/03/18 09:20:24;;;;;;;63.78;8.43;;;7.30;1.00;;;;;;5134060;27;20294;-67
2021/03/18 09:22:50;;;;;;;63.13;8.02;;;7.20;1.00;;;;;;5134047;27;20254;-67
2021/03/18 09:25:17;;;;;;;62.40;8.43;;;7.00;1.00;;;;;;5134025;27;20295;-67
2021/03/18 09:27:45;;;;;;;65.45;8.40;;;6.70;1.00;;;;;;5133808;27;20239;-67
2021/03/18 09:30:30;;;;;;;64.25;8.25;;;6.50;1.00;;;;;;5133677;27;20303;-67
2021/03/18 09:32:58;;;;;;;63.30;7.50;;;6.30;1.00;;;;;;5133565;27;20306;-67
2021/03/18 09:35:26;;;;;;;62.85;7.50;;;6.30;1.00;;;;;;5133435;27;20214;-67
2021/03/18 09:37:54;;;;;;;63.35;7.65;;;6.20;1.00;;;;;;5133412;27;20302;-67
2021/03/18 09:40:32;;;;;;;62.38;7.72;;;6.20;1.00;;;;;;5133269;27;20210;-67
2021/03/18 09:42:58;;;;;;;61.88;7.28;;;6.30;1.00;;;;;;5133439;27;20709;-67
2021/03/18 09:45:25;;;;;;;67.75;8.60;;;6.20;1.00;;;;;;5133421;27;20287;-67
2021/03/18 09:47:53;;;;;;;65.38;8.40;;;6.10;1.00;;;;;;5133182;27;20763;-67
2021/03/18 09:50:24;;;;;;;71.30;8.13;;;6.20;1.00;;;;;;5133582;27;20283;-67
2021/03/18 09:52:52;;;;;;;63.22;9.73;;;6.40;1.00;;;;;;5133342;27;20293;-67
2021/03/18 09:55:19;;;;;;;66.47;8.43;;;6.80;1.00;;;;;;5133156;27;20205;-67
2021/03/18 09:57:45;;;;;;;66.37;9.13;;;7.60;1.00;;;;;;5133281;27;20219;-67
2021/03/18 10:00:12;;;;;;;65.10;8.33;;;8.80;1.00;;;;;;5133032;27;21027;-67
2021/03/18 10:02:42;;;;;;;64.40;8.67;;;9.50;1.00;;;;;;5130356;27;20818;-66
2021/03/18 10:05:10;;;;;;;64.67;7.30;;;10.70;1.00;;;;;;5132424;27;20508;-65
2021/03/18 10:07:37;;;;;;;60.97;7.90;;;11.90;1.00;;;;;;5132702;27;20519;-67
2021/03/18 10:10:04;;;;;;;61.20;7.80;;;12.60;1.00;;;;;;5132066;27;21068;-67
2021/03/18 10:12:32;;;;;;;66.13;8.30;;;12.60;1.00;;;;;;5132515;27;20524;-67
2021/03/18 10:15:01;;;;;;;61.53;8.03;;;12.30;1.00;;;;;;5132344;27;20451;-67
2021/03/18 10:17:32;;;;;;;62.70;7.73;;;12.20;1.00;;;;;;5132789;27;20486;-67
2021/03/18 10:20:00;;;;;;;61.00;7.37;;;12.00;1.00;;;;;;5132772;27;20452;-67
2021/03/18 10:22:36;;;;;;;62.20;7.23;;;11.80;1.00;;;;;;5132666;27;20444;-67
2021/03/18 10:25:06;;;;;;;60.63;6.70;;;11.70;1.00;;;;;;5132656;27;20450;-67
2021/03/18 10:27:35;;;;;;;61.93;6.77;;;11.70;1.00;;;;;;5132331;27;20476;-67
2021/03/18 10:30:14;;;;;;;60.87;7.60;;;12.10;1.00;;;;;;5132763;27;20531;-67
2021/03/18 10:32:43;;;;;;;62.63;6.80;;;11.90;1.00;;;;;;5132558;27;20470;-67
2021/03/18 10:35:11;;;;;;;60.67;6.23;;;11.50;1.00;;;;;;5132502;27;20490;-67
2021/03/18 10:37:43;;;;;;;61.60;7.20;;;11.20;1.00;;;;;;5132553;27;21148;-67
2021/03/18 10:40:19;;;;;;;64.53;6.70;;;10.80;1.00;;;;;;5132187;27;20452;-67
2021/03/18 10:42:50;;;;;;;59.97;6.37;;;10.30;1.00;;;;;;5132547;27;20448;-67
2021/03/18 10:45:24;;;;;;;59.73;6.47;;;10.10;1.00;;;;;;5132517;27;20504;-67
2021/03/18 10:47:55;;;;;;;59.87;6.70;;;9.80;1.00;;;;;;5132253;27;21058;-66
2021/03/18 10:50:24;;;;;;;61.40;6.43;;;9.70;1.00;;;;;;5132238;27;20940;-66
2021/03/18 10:52:57;;;;;;;62.87;7.10;;;9.70;1.00;;;;;;5132540;27;20476;-66
2021/03/18 10:55:25;;;;;;;60.60;6.70;;;9.70;1.00;;;;;;5132557;27;20531;-67
2021/03/18 10:57:56;;;;;;;63.70;7.93;;;9.70;1.00;;;;;;5132493;27;20488;-67
2021/03/18 11:00:23;;;;;;;62.10;6.83;;;9.80;1.00;;;;;;5132264;27;20450;-67
2021/03/18 11:03:04;;;;;;;60.40;6.70;;;9.90;1.00;;;;;;5132567;27;20543;-67
2021/03/18 11:05:33;;;;;;;61.30;6.43;;;10.00;1.00;;;;;;5132363;27;20474;-67
2021/03/18 11:08:01;;;;;;;62.10;6.90;;;10.10;1.00;;;;;;5132073;27;21064;-67
2021/03/18 11:10:33;;;;;;;62.73;7.47;;;10.10;1.00;;;;;;5132093;27;20447;-67
2021/03/18 11:13:03;;;;;;;59.50;6.90;;;10.10;1.00;;;;;;5132088;27;20441;-67
2021/03/18 11:15:47;;;;;;;60.90;6.90;;;10.10;1.00;;;;;;5131886;27;20546;-67
2021/03/18 11:18:15;;;;;;;62.70;6.77;;;10.10;1.00;;;;;;5132305;27;20922;-67
2021/03/18 11:20:43;;;;;;;59.50;6.33;;;10.50;1.00;;;;;;5132088;27;20448;-67
2021/03/18 11:23:12;;;;;;;60.80;6.43;;;11.50;1.00;;;;;;5131996;27;20452;-67
2021/03/18 11:25:39;;;;;;;63.20;6.80;;;11.80;1.00;;;;;;5133039;27;20472;-65
2021/03/18 11:28:15;;;;;;;59.43;5.77;;;11.70;1.00;;;;;;5135532;27;20575;-67
2021/03/18 11:30:43;;;;;;;59.47;6.13;;;11.30;1.00;;;;;;5135774;27;20487;-66
2021/03/18 11:33:11;;;;;;;64.27;6.57;;;11.00;1.00;;;;;;5135886;27;20483;-65
2021/03/18 11:35:39;;;;;;;60.50;7.03;;;10.60;1.00;;;;;;5135610;27;20455;-66
2021/03/18 11:38:05;;;;;;;60.10;5.93;;;10.20;1.00;;;;;;5135933;27;20865;-66
2021/03/18 11:40:33;;;;;;;61.27;6.70;;;10.00;1.00;;;;;;5135529;27;20527;-66
2021/03/18 11:42:59;;;;;;;60.60;5.87;;;9.70;1.00;;;;;;5135529;27;20474;-66
2021/03/18 11:45:25;;;;;;;62.67;7.20;;;9.50;1.00;;;;;;5135687;27;20487;-66
2021/03/18 11:47:52;;;;;;;60.57;6.23;;;9.50;1.00;;;;;;5135471;27;20530;-66
2021/03/18 11:50:18;;;;;;;59.77;7.20;;;9.50;1.00;;;;;;5135466;27;20454;-66
2021/03/18 11:52:45;;;;;;;62.33;6.57;;;9.50;1.00;;;;;;5135351;27;20455;-66
2021/03/18 11:55:11;;;;;;;60.57;5.90;;;9.60;1.00;;;;;;5135051;27;20877;-66
2021/03/18 11:57:38;;;;;;;60.60;6.17;;;9.70;1.00;;;;;;5134341;27;20512;-66
2021/03/18 12:00:07;;;;;;;60.10;5.60;;;9.80;1.00;;;;;;5135186;27;20493;-66
2021/03/18 12:02:34;;;;;;;58.30;5.20;;;10.00;1.00;;;;;;5135302;27;20861;-66
2021/03/18 12:05:00;;;;;;;59.37;5.67;;;10.30;1.00;;;;;;5133578;27;20453;-67
2021/03/18 12:07:27;;;;;;;60.60;7.07;;;10.50;1.00;;;;;;5134922;27;20601;-67
2021/03/18 12:09:53;;;;;;;59.37;5.53;;;10.60;1.00;;;;;;5135172;27;20448;-67
2021/03/18 12:12:20;;;;;;;59.17;6.33;;;11.30;1.00;;;;;;5135047;27;20547;-67
2021/03/18 12:14:47;;;;;;;65.03;6.43;;;13.30;1.00;;;;;;5135037;27;20548;-65
2021/03/18 12:17:13;;;;;;;63.10;6.17;;;15.40;1.00;;;;;;5135001;27;20469;-66
2021/03/18 12:19:39;;;;;;;61.57;6.27;;;17.10;1.00;;;;;;5134882;27;20843;-66
2021/03/18 12:22:06;;;;;;;60.77;6.97;;;17.60;1.00;;;;;;5134343;27;20475;-66
2021/03/18 12:24:32;;;;;;;61.70;6.27;;;16.90;1.00;;;;;;5133872;27;20445;-67
2021/03/18 12:26:59;;;;;;;61.13;5.60;;;16.10;1.00;;;;;;5134889;27;20873;-67
2021/03/18 12:29:25;;;;;;;59.27;6.10;;;15.40;1.00;;;;;;5134498;27;20568;-66
2021/03/18 12:31:52;;;;;;;58.70;5.53;;;15.10;1.00;;;;;;5134595;27;20533;-66
2021/03/18 12:34:19;;;;;;;62.37;5.60;;;15.00;1.00;;;;;;5133991;27;20448;-67
2021/03/18 12:36:46;;;;;;;62.27;5.30;;;15.00;1.00;;;;;;5133745;27;20471;-67
2021/03/18 12:39:12;;;;;;;57.20;4.67;;;15.80;1.00;;;;;;5133709;27;20978;-66
2021/03/18 12:41:39;;;;;;;62.87;5.53;;;17.50;1.00;;;;;;5134203;27;20503;-66
2021/03/18 12:44:06;;;;;;;60.77;5.60;;;19.40;1.00;;;;;;5134297;27;20891;-67
2021/03/18 12:46:32;;;;;;;58.30;5.50;;;21.10;1.00;;;;;;5133869;27;20474;-66
2021/03/18 12:49:02;;;;;;;59.20;5.40;;;22.80;1.00;;;;;;5134317;27;20508;-66
2021/03/18 12:51:28;;;;;;;59.87;5.50;;;23.70;1.00;;;;;;5134143;27;20890;-67
2021/03/18 12:53:55;;;;;;;59.17;5.60;;;24.20;1.00;;;;;;5134091;27;20524;-67
2021/03/18 12:56:21;;;;;;;59.40;5.30;;;23.60;1.00;;;;;;5133994;27;20480;-66
2021/03/18 12:58:47;;;;;;;60.00;6.10;;;21.70;1.00;;;;;;5134202;27;20529;-68
2021/03/18 13:01:14;;;;;;;59.67;5.57;;;19.30;1.00;;;;;;5134058;27;20968;-66